sensor_id;sensor_type;location;lat;lon;timestamp;P1;durP1;ratioP1;P2;durP2;ratioP2
912;SDS011;443;51.448;7.028;2023-04-01T00:01:07;0.70;;;0.50;;
912;SDS011;443;51.448;7.028;2023-04-01T00:03:35;1.90;;;0.57;;
912;SDS011;443;51.448;7.028;2023-04-01T00:06:02;1.90;;;0.70;;
912;SDS011;443;51.448;7.028;2023-04-01T00:08:29;1.80;;;0.80;;
912;SDS011;443;51.448;7.028;2023-04-01T00:10:56;2.50;;;0.80;;
912;SDS011;443;51.448;7.028;2023-04-01T00:13:23;7.60;;;1.13;;
912;SDS011;443;51.448;7.028;2023-04-01T00:15:51;1.43;;;0.53;;
912;SDS011;443;51.448;7.028;2023-04-01T00:18:18;1.10;;;0.90;;
912;SDS011;443;51.448;7.028;2023-04-01T00:20:47;1.03;;;0.47;;
912;SDS011;443;51.448;7.028;2023-04-01T00:23:15;2.17;;;0.83;;
912;SDS011;443;51.448;7.028;2023-04-01T00:25:43;4.77;;;0.97;;
912;SDS011;443;51.448;7.028;2023-04-01T00:28:12;5.87;;;1.10;;
912;SDS011;443;51.448;7.028;2023-04-01T00:30:39;3.10;;;0.70;;
912;SDS011;443;51.448;7.028;2023-04-01T00:33:06;3.13;;;0.80;;
912;SDS011;443;51.448;7.028;2023-04-01T00:35:33;1.73;;;0.70;;
912;SDS011;443;51.448;7.028;2023-04-01T00:38:01;1.10;;;0.67;;
912;SDS011;443;51.448;7.028;2023-04-01T00:40:30;2.23;;;0.70;;
912;SDS011;443;51.448;7.028;2023-04-01T00:42:58;1.20;;;0.60;;
912;SDS011;443;51.448;7.028;2023-04-01T00:45:30;1.13;;;0.70;;
912;SDS011;443;51.448;7.028;2023-04-01T00:47:59;3.07;;;0.83;;
912;SDS011;443;51.448;7.028;2023-04-01T00:50:30;4.00;;;1.03;;
912;SDS011;443;51.448;7.028;2023-04-01T00:52:58;1.83;;;0.70;;
912;SDS011;443;51.448;7.028;2023-04-01T00:55:28;1.60;;;0.67;;
912;SDS011;443;51.448;7.028;2023-04-01T00:57:58;0.97;;;0.57;;
912;SDS011;443;51.448;7.028;2023-04-01T01:00:26;0.90;;;0.50;;
912;SDS011;443;51.448;7.028;2023-04-01T01:02:52;1.37;;;0.67;;
912;SDS011;443;51.448;7.028;2023-04-01T01:05:21;1.57;;;0.80;;
912;SDS011;443;51.448;7.028;2023-04-01T01:07:57;1.73;;;0.60;;
912;SDS011;443;51.448;7.028;2023-04-01T01:10:31;1.17;;;0.57;;
912;SDS011;443;51.448;7.028;2023-04-01T01:13:01;2.00;;;0.60;;
912;SDS011;443;51.448;7.028;2023-04-01T01:15:37;1.70;;;0.70;;
912;SDS011;443;51.448;7.028;2023-04-01T01:18:13;1.33;;;0.73;;
912;SDS011;443;51.448;7.028;2023-04-01T01:20:49;0.97;;;0.50;;
912;SDS011;443;51.448;7.028;2023-04-01T01:23:37;1.90;;;0.57;;
912;SDS011;443;51.448;7.028;2023-04-01T01:26:39;4.17;;;1.33;;
912;SDS011;443;51.448;7.028;2023-04-01T01:29:16;0.70;;;0.43;;
912;SDS011;443;51.448;7.028;2023-04-01T01:32:02;1.30;;;0.53;;
912;SDS011;443;51.448;7.028;2023-04-01T01:34:35;1.37;;;0.50;;
912;SDS011;443;51.448;7.028;2023-04-01T01:37:08;2.70;;;0.50;;
912;SDS011;443;51.448;7.028;2023-04-01T01:39:38;2.50;;;1.93;;
912;SDS011;443;51.448;7.028;2023-04-01T01:42:08;1.97;;;0.47;;
912;SDS011;443;51.448;7.028;2023-04-01T01:44:39;1.83;;;0.60;;
912;SDS011;443;51.448;7.028;2023-04-01T01:47:10;0.87;;;0.57;;
912;SDS011;443;51.448;7.028;2023-04-01T01:49:37;1.50;;;0.70;;
912;SDS011;443;51.448;7.028;2023-04-01T01:52:09;1.47;;;0.50;;
912;SDS011;443;51.448;7.028;2023-04-01T01:54:36;2.50;;;1.03;;
912;SDS011;443;51.448;7.028;2023-04-01T01:57:12;1.47;;;0.60;;
912;SDS011;443;51.448;7.028;2023-04-01T01:59:40;1.53;;;0.60;;
912;SDS011;443;51.448;7.028;2023-04-01T02:02:10;2.17;;;1.57;;
912;SDS011;443;51.448;7.028;2023-04-01T02:04:40;0.70;;;0.40;;
912;SDS011;443;51.448;7.028;2023-04-01T02:07:12;0.90;;;0.70;;
912;SDS011;443;51.448;7.028;2023-04-01T02:09:44;1.20;;;0.60;;
912;SDS011;443;51.448;7.028;2023-04-01T02:12:12;1.17;;;0.63;;
912;SDS011;443;51.448;7.028;2023-04-01T02:14:43;1.53;;;0.60;;
912;SDS011;443;51.448;7.028;2023-04-01T02:17:12;2.07;;;0.73;;
912;SDS011;443;51.448;7.028;2023-04-01T02:19:44;0.70;;;0.40;;
912;SDS011;443;51.448;7.028;2023-04-01T02:22:16;2.40;;;0.50;;
912;SDS011;443;51.448;7.028;2023-04-01T02:24:46;1.10;;;0.67;;
912;SDS011;443;51.448;7.028;2023-04-01T02:27:14;1.60;;;0.90;;
912;SDS011;443;51.448;7.028;2023-04-01T02:29:41;1.90;;;0.70;;
912;SDS011;443;51.448;7.028;2023-04-01T02:32:08;2.20;;;0.83;;
912;SDS011;443;51.448;7.028;2023-04-01T02:34:36;1.77;;;0.60;;
912;SDS011;443;51.448;7.028;2023-04-01T02:37:02;3.17;;;0.93;;
912;SDS011;443;51.448;7.028;2023-04-01T02:39:31;1.10;;;0.60;;
912;SDS011;443;51.448;7.028;2023-04-01T02:41:58;0.80;;;0.50;;
912;SDS011;443;51.448;7.028;2023-04-01T02:44:25;1.23;;;0.60;;
912;SDS011;443;51.448;7.028;2023-04-01T02:46:52;3.70;;;0.57;;
912;SDS011;443;51.448;7.028;2023-04-01T02:49:18;1.07;;;0.50;;
912;SDS011;443;51.448;7.028;2023-04-01T02:51:45;0.90;;;0.57;;
912;SDS011;443;51.448;7.028;2023-04-01T02:54:12;1.10;;;0.60;;
912;SDS011;443;51.448;7.028;2023-04-01T02:56:40;1.50;;;0.70;;
912;SDS011;443;51.448;7.028;2023-04-01T02:59:07;1.50;;;0.50;;
912;SDS011;443;51.448;7.028;2023-04-01T03:01:34;3.93;;;1.07;;
912;SDS011;443;51.448;7.028;2023-04-01T03:04:01;3.27;;;1.10;;
912;SDS011;443;51.448;7.028;2023-04-01T03:06:28;2.30;;;1.77;;
912;SDS011;443;51.448;7.028;2023-04-01T03:08:55;1.20;;;0.60;;
912;SDS011;443;51.448;7.028;2023-04-01T03:11:22;1.10;;;0.77;;
912;SDS011;443;51.448;7.028;2023-04-01T03:13:50;1.47;;;0.50;;
912;SDS011;443;51.448;7.028;2023-04-01T03:16:17;1.77;;;0.50;;
912;SDS011;443;51.448;7.028;2023-04-01T03:18:43;2.33;;;0.77;;
912;SDS011;443;51.448;7.028;2023-04-01T03:21:14;1.90;;;0.73;;
912;SDS011;443;51.448;7.028;2023-04-01T03:23:41;1.00;;;0.80;;
912;SDS011;443;51.448;7.028;2023-04-01T03:26:08;2.90;;;0.60;;
912;SDS011;443;51.448;7.028;2023-04-01T03:28:35;1.23;;;0.70;;
912;SDS011;443;51.448;7.028;2023-04-01T03:31:03;3.23;;;3.03;;
912;SDS011;443;51.448;7.028;2023-04-01T03:33:30;2.93;;;0.67;;
912;SDS011;443;51.448;7.028;2023-04-01T03:35:57;0.90;;;0.80;;
912;SDS011;443;51.448;7.028;2023-04-01T03:38:24;0.80;;;0.50;;
912;SDS011;443;51.448;7.028;2023-04-01T03:40:51;1.20;;;0.73;;
912;SDS011;443;51.448;7.028;2023-04-01T03:43:18;1.23;;;0.63;;
912;SDS011;443;51.448;7.028;2023-04-01T03:45:45;1.37;;;0.50;;
912;SDS011;443;51.448;7.028;2023-04-01T03:48:14;0.80;;;0.60;;
912;SDS011;443;51.448;7.028;2023-04-01T03:50:41;1.03;;;0.73;;
912;SDS011;443;51.448;7.028;2023-04-01T03:53:08;1.43;;;0.60;;
912;SDS011;443;51.448;7.028;2023-04-01T03:55:36;3.67;;;0.90;;
912;SDS011;443;51.448;7.028;2023-04-01T03:58:03;1.00;;;0.60;;
912;SDS011;443;51.448;7.028;2023-04-01T04:00:30;3.70;;;0.60;;
912;SDS011;443;51.448;7.028;2023-04-01T04:02:57;1.10;;;0.60;;
912;SDS011;443;51.448;7.028;2023-04-01T04:05:26;0.90;;;0.60;;
912;SDS011;443;51.448;7.028;2023-04-01T04:07:53;1.10;;;0.70;;
912;SDS011;443;51.448;7.028;2023-04-01T04:10:21;1.70;;;0.53;;
912;SDS011;443;51.448;7.028;2023-04-01T04:12:48;1.43;;;0.90;;
912;SDS011;443;51.448;7.028;2023-04-01T04:15:16;1.00;;;0.60;;
912;SDS011;443;51.448;7.028;2023-04-01T04:17:43;1.30;;;0.80;;
912;SDS011;443;51.448;7.028;2023-04-01T04:20:10;0.90;;;0.60;;
912;SDS011;443;51.448;7.028;2023-04-01T04:22:39;2.60;;;0.67;;
912;SDS011;443;51.448;7.028;2023-04-01T04:25:06;0.83;;;0.50;;
912;SDS011;443;51.448;7.028;2023-04-01T04:27:33;0.80;;;0.40;;
912;SDS011;443;51.448;7.028;2023-04-01T04:30:01;0.80;;;0.50;;
912;SDS011;443;51.448;7.028;2023-04-01T04:32:28;0.90;;;0.67;;
912;SDS011;443;51.448;7.028;2023-04-01T04:34:56;3.30;;;0.70;;
912;SDS011;443;51.448;7.028;2023-04-01T04:37:23;1.47;;;0.50;;
912;SDS011;443;51.448;7.028;2023-04-01T04:39:52;1.00;;;0.60;;
912;SDS011;443;51.448;7.028;2023-04-01T04:42:18;1.17;;;0.70;;
912;SDS011;443;51.448;7.028;2023-04-01T04:44:45;1.53;;;0.70;;
912;SDS011;443;51.448;7.028;2023-04-01T04:47:12;1.07;;;0.77;;
912;SDS011;443;51.448;7.028;2023-04-01T04:49:39;1.37;;;0.90;;
912;SDS011;443;51.448;7.028;2023-04-01T04:52:06;1.10;;;0.70;;
912;SDS011;443;51.448;7.028;2023-04-01T04:54:32;1.00;;;0.60;;
912;SDS011;443;51.448;7.028;2023-04-01T04:57:01;1.63;;;0.70;;
912;SDS011;443;51.448;7.028;2023-04-01T04:59:27;2.20;;;0.60;;
912;SDS011;443;51.448;7.028;2023-04-01T05:01:54;0.80;;;0.57;;
912;SDS011;443;51.448;7.028;2023-04-01T05:04:21;1.23;;;0.70;;
912;SDS011;443;51.448;7.028;2023-04-01T05:06:47;1.63;;;0.50;;
912;SDS011;443;51.448;7.028;2023-04-01T05:09:14;0.90;;;0.70;;
912;SDS011;443;51.448;7.028;2023-04-01T05:11:41;1.07;;;0.70;;
912;SDS011;443;51.448;7.028;2023-04-01T05:14:13;2.07;;;0.70;;
912;SDS011;443;51.448;7.028;2023-04-01T05:16:40;1.77;;;0.73;;
912;SDS011;443;51.448;7.028;2023-04-01T05:19:06;1.97;;;0.80;;
912;SDS011;443;51.448;7.028;2023-04-01T05:21:33;0.90;;;0.60;;
912;SDS011;443;51.448;7.028;2023-04-01T05:24:00;0.83;;;0.60;;
912;SDS011;443;51.448;7.028;2023-04-01T05:26:27;1.00;;;0.60;;
912;SDS011;443;51.448;7.028;2023-04-01T05:28:53;1.00;;;0.80;;
912;SDS011;443;51.448;7.028;2023-04-01T05:31:22;1.63;;;0.80;;
912;SDS011;443;51.448;7.028;2023-04-01T05:33:49;1.10;;;0.83;;
912;SDS011;443;51.448;7.028;2023-04-01T05:36:16;1.17;;;0.70;;
912;SDS011;443;51.448;7.028;2023-04-01T05:38:43;1.27;;;0.90;;
912;SDS011;443;51.448;7.028;2023-04-01T05:41:10;0.80;;;0.63;;
912;SDS011;443;51.448;7.028;2023-04-01T05:43:37;1.40;;;0.80;;
912;SDS011;443;51.448;7.028;2023-04-01T05:46:05;2.40;;;1.03;;
912;SDS011;443;51.448;7.028;2023-04-01T05:48:34;1.47;;;0.93;;
912;SDS011;443;51.448;7.028;2023-04-01T05:51:01;2.50;;;0.90;;
912;SDS011;443;51.448;7.028;2023-04-01T05:53:28;2.47;;;1.20;;
912;SDS011;443;51.448;7.028;2023-04-01T05:55:55;1.17;;;1.00;;
912;SDS011;443;51.448;7.028;2023-04-01T05:58:22;1.23;;;1.10;;
912;SDS011;443;51.448;7.028;2023-04-01T06:00:49;1.40;;;0.80;;
912;SDS011;443;51.448;7.028;2023-04-01T06:03:16;1.30;;;0.90;;
912;SDS011;443;51.448;7.028;2023-04-01T06:05:44;1.20;;;1.10;;
912;SDS011;443;51.448;7.028;2023-04-01T06:08:11;0.97;;;0.70;;
912;SDS011;443;51.448;7.028;2023-04-01T06:10:43;1.30;;;0.97;;
912;SDS011;443;51.448;7.028;2023-04-01T06:13:24;1.00;;;0.70;;
912;SDS011;443;51.448;7.028;2023-04-01T06:16:00;1.10;;;0.80;;
912;SDS011;443;51.448;7.028;2023-04-01T06:18:39;2.70;;;1.07;;
912;SDS011;443;51.448;7.028;2023-04-01T06:21:24;1.33;;;1.00;;
912;SDS011;443;51.448;7.028;2023-04-01T06:24:18;1.47;;;1.30;;
912;SDS011;443;51.448;7.028;2023-04-01T06:26:58;2.60;;;1.30;;
912;SDS011;443;51.448;7.028;2023-04-01T06:29:43;1.43;;;0.93;;
912;SDS011;443;51.448;7.028;2023-04-01T06:44:06;1.60;;;1.30;;
912;SDS011;443;51.448;7.028;2023-04-01T06:46:42;1.30;;;0.97;;
912;SDS011;443;51.448;7.028;2023-04-01T06:49:18;1.40;;;1.17;;
912;SDS011;443;51.448;7.028;2023-04-01T06:51:56;1.93;;;1.00;;
912;SDS011;443;51.448;7.028;2023-04-01T06:54:28;2.23;;;1.33;;
912;SDS011;443;51.448;7.028;2023-04-01T06:57:02;1.60;;;1.20;;
912;SDS011;443;51.448;7.028;2023-04-01T06:59:37;1.50;;;1.20;;
912;SDS011;443;51.448;7.028;2023-04-01T07:02:04;1.80;;;1.20;;
912;SDS011;443;51.448;7.028;2023-04-01T07:04:39;1.67;;;1.10;;
912;SDS011;443;51.448;7.028;2023-04-01T07:07:11;2.00;;;1.23;;
912;SDS011;443;51.448;7.028;2023-04-01T07:09:47;1.53;;;1.20;;
912;SDS011;443;51.448;7.028;2023-04-01T07:12:19;1.37;;;1.03;;
912;SDS011;443;51.448;7.028;2023-04-01T07:14:55;1.10;;;1.00;;
912;SDS011;443;51.448;7.028;2023-04-01T07:17:25;1.73;;;1.33;;
912;SDS011;443;51.448;7.028;2023-04-01T07:19:56;1.87;;;1.33;;
912;SDS011;443;51.448;7.028;2023-04-01T07:22:29;1.43;;;1.03;;
912;SDS011;443;51.448;7.028;2023-04-01T07:25:02;1.87;;;1.23;;
912;SDS011;443;51.448;7.028;2023-04-01T07:27:31;1.50;;;1.13;;
912;SDS011;443;51.448;7.028;2023-04-01T07:29:58;1.60;;;0.80;;
912;SDS011;443;51.448;7.028;2023-04-01T07:32:29;1.50;;;1.10;;
912;SDS011;443;51.448;7.028;2023-04-01T07:35:07;1.27;;;0.80;;
912;SDS011;443;51.448;7.028;2023-04-01T07:37:42;2.03;;;1.07;;
912;SDS011;443;51.448;7.028;2023-04-01T07:40:21;1.10;;;0.80;;
912;SDS011;443;51.448;7.028;2023-04-01T07:43:00;2.53;;;2.13;;
912;SDS011;443;51.448;7.028;2023-04-01T07:45:40;1.43;;;1.13;;
912;SDS011;443;51.448;7.028;2023-04-01T07:48:16;1.70;;;1.53;;
912;SDS011;443;51.448;7.028;2023-04-01T07:50:50;2.20;;;2.00;;
912;SDS011;443;51.448;7.028;2023-04-01T07:53:25;1.70;;;1.30;;
912;SDS011;443;51.448;7.028;2023-04-01T07:56:01;1.77;;;1.40;;
912;SDS011;443;51.448;7.028;2023-04-01T07:58:33;2.53;;;1.60;;
912;SDS011;443;51.448;7.028;2023-04-01T08:01:10;1.87;;;1.47;;
912;SDS011;443;51.448;7.028;2023-04-01T08:03:48;1.70;;;1.33;;
912;SDS011;443;51.448;7.028;2023-04-01T08:06:31;2.27;;;1.60;;
912;SDS011;443;51.448;7.028;2023-04-01T08:09:05;2.40;;;1.97;;
912;SDS011;443;51.448;7.028;2023-04-01T08:11:48;2.13;;;1.73;;
912;SDS011;443;51.448;7.028;2023-04-01T08:14:25;3.10;;;2.20;;
912;SDS011;443;51.448;7.028;2023-04-01T08:17:01;2.50;;;2.20;;
912;SDS011;443;51.448;7.028;2023-04-01T08:19:33;2.50;;;2.07;;
912;SDS011;443;51.448;7.028;2023-04-01T08:22:12;2.50;;;2.30;;
912;SDS011;443;51.448;7.028;2023-04-01T08:24:46;2.80;;;2.30;;
912;SDS011;443;51.448;7.028;2023-04-01T08:27:17;2.87;;;2.33;;
912;SDS011;443;51.448;7.028;2023-04-01T08:29:49;2.90;;;2.70;;
912;SDS011;443;51.448;7.028;2023-04-01T08:32:20;3.57;;;3.20;;
912;SDS011;443;51.448;7.028;2023-04-01T08:34:54;3.20;;;2.70;;
912;SDS011;443;51.448;7.028;2023-04-01T08:37:33;3.93;;;3.50;;
912;SDS011;443;51.448;7.028;2023-04-01T08:40:12;3.87;;;2.97;;
912;SDS011;443;51.448;7.028;2023-04-01T08:43:00;3.17;;;2.80;;
912;SDS011;443;51.448;7.028;2023-04-01T08:48:40;2.97;;;2.63;;
912;SDS011;443;51.448;7.028;2023-04-01T08:51:21;4.20;;;3.33;;
912;SDS011;443;51.448;7.028;2023-04-01T08:54:21;5.03;;;2.60;;
912;SDS011;443;51.448;7.028;2023-04-01T08:57:07;4.03;;;2.77;;
912;SDS011;443;51.448;7.028;2023-04-01T08:59:55;4.97;;;3.40;;
912;SDS011;443;51.448;7.028;2023-04-01T09:02:49;3.53;;;3.10;;
912;SDS011;443;51.448;7.028;2023-04-01T09:05:34;3.30;;;3.00;;
912;SDS011;443;51.448;7.028;2023-04-01T09:08:10;3.83;;;3.30;;
912;SDS011;443;51.448;7.028;2023-04-01T09:13:42;4.10;;;3.53;;
912;SDS011;443;51.448;7.028;2023-04-01T09:16:38;5.20;;;3.97;;
912;SDS011;443;51.448;7.028;2023-04-01T09:19:24;5.20;;;4.43;;
912;SDS011;443;51.448;7.028;2023-04-01T09:22:09;5.93;;;4.33;;
912;SDS011;443;51.448;7.028;2023-04-01T09:24:56;6.40;;;3.90;;
912;SDS011;443;51.448;7.028;2023-04-01T09:27:41;4.73;;;4.23;;
912;SDS011;443;51.448;7.028;2023-04-01T09:30:20;4.73;;;4.23;;
912;SDS011;443;51.448;7.028;2023-04-01T09:36:21;4.70;;;4.10;;
912;SDS011;443;51.448;7.028;2023-04-01T09:39:04;4.73;;;4.10;;
912;SDS011;443;51.448;7.028;2023-04-01T09:41:53;5.67;;;3.60;;
912;SDS011;443;51.448;7.028;2023-04-01T09:44:34;4.27;;;3.87;;
912;SDS011;443;51.448;7.028;2023-04-01T09:47:06;6.10;;;3.93;;
912;SDS011;443;51.448;7.028;2023-04-01T09:52:45;5.23;;;3.60;;
912;SDS011;443;51.448;7.028;2023-04-01T09:55:28;6.30;;;4.60;;
912;SDS011;443;51.448;7.028;2023-04-01T10:01:39;6.93;;;4.57;;
912;SDS011;443;51.448;7.028;2023-04-01T10:07:30;5.07;;;4.50;;
912;SDS011;443;51.448;7.028;2023-04-01T10:10:30;5.83;;;5.27;;
912;SDS011;443;51.448;7.028;2023-04-01T10:13:40;5.20;;;4.60;;
912;SDS011;443;51.448;7.028;2023-04-01T10:19:44;5.27;;;4.60;;
912;SDS011;443;51.448;7.028;2023-04-01T10:22:39;5.17;;;4.20;;
912;SDS011;443;51.448;7.028;2023-04-01T10:28:40;5.90;;;4.60;;
912;SDS011;443;51.448;7.028;2023-04-01T10:34:18;5.80;;;4.47;;
912;SDS011;443;51.448;7.028;2023-04-01T10:37:15;5.57;;;4.80;;
912;SDS011;443;51.448;7.028;2023-04-01T10:40:19;6.20;;;4.80;;
912;SDS011;443;51.448;7.028;2023-04-01T10:46:11;4.93;;;4.33;;
912;SDS011;443;51.448;7.028;2023-04-01T10:49:07;5.17;;;4.37;;
912;SDS011;443;51.448;7.028;2023-04-01T10:51:58;4.87;;;4.20;;
912;SDS011;443;51.448;7.028;2023-04-01T10:54:54;5.60;;;4.93;;
912;SDS011;443;51.448;7.028;2023-04-01T10:57:47;6.40;;;4.80;;
912;SDS011;443;51.448;7.028;2023-04-01T11:00:51;6.40;;;3.80;;
912;SDS011;443;51.448;7.028;2023-04-01T11:06:43;5.63;;;4.00;;
912;SDS011;443;51.448;7.028;2023-04-01T11:15:57;5.03;;;4.03;;
912;SDS011;443;51.448;7.028;2023-04-01T11:22:14;5.93;;;4.90;;
912;SDS011;443;51.448;7.028;2023-04-01T11:25:09;5.53;;;4.20;;
912;SDS011;443;51.448;7.028;2023-04-01T11:27:55;5.87;;;4.70;;
912;SDS011;443;51.448;7.028;2023-04-01T11:30:53;7.23;;;4.20;;
912;SDS011;443;51.448;7.028;2023-04-01T11:33:31;5.17;;;4.67;;
912;SDS011;443;51.448;7.028;2023-04-01T11:36:09;4.63;;;3.60;;
912;SDS011;443;51.448;7.028;2023-04-01T11:38:53;6.77;;;4.63;;
912;SDS011;443;51.448;7.028;2023-04-01T11:41:49;5.50;;;4.63;;
912;SDS011;443;51.448;7.028;2023-04-01T11:44:23;3.83;;;3.40;;
912;SDS011;443;51.448;7.028;2023-04-01T11:46:59;4.50;;;3.73;;
912;SDS011;443;51.448;7.028;2023-04-01T11:49:36;5.53;;;4.73;;
912;SDS011;443;51.448;7.028;2023-04-01T11:52:15;7.20;;;5.40;;
912;SDS011;443;51.448;7.028;2023-04-01T11:54:56;6.83;;;5.07;;
912;SDS011;443;51.448;7.028;2023-04-01T11:57:39;5.57;;;4.20;;
912;SDS011;443;51.448;7.028;2023-04-01T12:00:36;8.20;;;4.40;;
912;SDS011;443;51.448;7.028;2023-04-01T12:03:26;5.53;;;4.20;;
912;SDS011;443;51.448;7.028;2023-04-01T12:06:21;6.77;;;5.33;;
912;SDS011;443;51.448;7.028;2023-04-01T12:08:58;5.30;;;4.50;;
912;SDS011;443;51.448;7.028;2023-04-01T12:11:33;4.70;;;4.00;;
912;SDS011;443;51.448;7.028;2023-04-01T12:14:08;4.20;;;3.53;;
912;SDS011;443;51.448;7.028;2023-04-01T12:16:45;5.40;;;4.67;;
912;SDS011;443;51.448;7.028;2023-04-01T12:19:19;5.70;;;4.30;;
912;SDS011;443;51.448;7.028;2023-04-01T12:21:55;6.83;;;4.83;;
912;SDS011;443;51.448;7.028;2023-04-01T12:24:39;6.20;;;4.90;;
912;SDS011;443;51.448;7.028;2023-04-01T12:27:14;6.73;;;4.67;;
912;SDS011;443;51.448;7.028;2023-04-01T12:30:01;7.27;;;5.27;;
912;SDS011;443;51.448;7.028;2023-04-01T12:32:41;7.70;;;6.07;;
912;SDS011;443;51.448;7.028;2023-04-01T12:35:17;6.10;;;5.37;;
912;SDS011;443;51.448;7.028;2023-04-01T12:37:50;5.60;;;4.97;;
912;SDS011;443;51.448;7.028;2023-04-01T12:40:36;6.57;;;5.57;;
912;SDS011;443;51.448;7.028;2023-04-01T12:43:17;6.03;;;5.43;;
912;SDS011;443;51.448;7.028;2023-04-01T12:45:54;7.63;;;6.83;;
912;SDS011;443;51.448;7.028;2023-04-01T12:48:48;8.13;;;6.60;;
912;SDS011;443;51.448;7.028;2023-04-01T12:54:37;5.70;;;5.20;;
912;SDS011;443;51.448;7.028;2023-04-01T12:57:38;7.17;;;4.70;;
912;SDS011;443;51.448;7.028;2023-04-01T13:00:25;5.20;;;4.70;;
912;SDS011;443;51.448;7.028;2023-04-01T13:03:07;6.33;;;5.07;;
912;SDS011;443;51.448;7.028;2023-04-01T13:08:48;4.60;;;4.10;;
912;SDS011;443;51.448;7.028;2023-04-01T13:11:25;5.30;;;4.30;;
912;SDS011;443;51.448;7.028;2023-04-01T13:14:06;4.73;;;3.70;;
912;SDS011;443;51.448;7.028;2023-04-01T13:16:50;7.27;;;4.20;;
912;SDS011;443;51.448;7.028;2023-04-01T13:19:25;6.40;;;3.83;;
912;SDS011;443;51.448;7.028;2023-04-01T13:22:01;4.23;;;3.53;;
912;SDS011;443;51.448;7.028;2023-04-01T13:24:40;6.50;;;3.97;;
912;SDS011;443;51.448;7.028;2023-04-01T13:27:14;5.33;;;4.60;;
912;SDS011;443;51.448;7.028;2023-04-01T13:29:54;6.10;;;4.80;;
912;SDS011;443;51.448;7.028;2023-04-01T13:32:29;5.60;;;3.90;;
912;SDS011;443;51.448;7.028;2023-04-01T13:35:06;5.37;;;3.80;;
912;SDS011;443;51.448;7.028;2023-04-01T13:37:49;3.90;;;3.37;;
912;SDS011;443;51.448;7.028;2023-04-01T13:43:15;3.50;;;3.00;;
912;SDS011;443;51.448;7.028;2023-04-01T13:45:55;6.50;;;3.37;;
912;SDS011;443;51.448;7.028;2023-04-01T13:48:38;4.73;;;3.20;;
912;SDS011;443;51.448;7.028;2023-04-01T13:51:33;5.33;;;3.30;;
912;SDS011;443;51.448;7.028;2023-04-01T13:57:19;5.53;;;3.93;;
912;SDS011;443;51.448;7.028;2023-04-01T14:02:49;4.33;;;3.20;;
912;SDS011;443;51.448;7.028;2023-04-01T14:05:30;5.27;;;3.90;;
912;SDS011;443;51.448;7.028;2023-04-01T14:08:09;4.70;;;3.60;;
912;SDS011;443;51.448;7.028;2023-04-01T14:10:48;5.33;;;3.40;;
912;SDS011;443;51.448;7.028;2023-04-01T14:13:23;4.07;;;2.80;;
912;SDS011;443;51.448;7.028;2023-04-01T14:16:00;5.30;;;3.30;;
912;SDS011;443;51.448;7.028;2023-04-01T14:18:42;5.50;;;3.27;;
912;SDS011;443;51.448;7.028;2023-04-01T14:21:21;4.83;;;3.87;;
912;SDS011;443;51.448;7.028;2023-04-01T14:23:58;4.20;;;3.67;;
912;SDS011;443;51.448;7.028;2023-04-01T14:26:50;5.33;;;3.63;;
912;SDS011;443;51.448;7.028;2023-04-01T14:29:36;4.40;;;3.70;;
912;SDS011;443;51.448;7.028;2023-04-01T14:32:10;5.63;;;4.07;;
912;SDS011;443;51.448;7.028;2023-04-01T14:34:50;3.83;;;3.43;;
912;SDS011;443;51.448;7.028;2023-04-01T14:37:30;5.87;;;4.00;;
912;SDS011;443;51.448;7.028;2023-04-01T14:40:16;6.20;;;4.47;;
912;SDS011;443;51.448;7.028;2023-04-01T14:43:01;5.37;;;3.90;;
912;SDS011;443;51.448;7.028;2023-04-01T14:45:47;7.20;;;4.87;;
912;SDS011;443;51.448;7.028;2023-04-01T14:48:32;6.10;;;3.70;;
912;SDS011;443;51.448;7.028;2023-04-01T14:51:03;6.90;;;5.33;;
912;SDS011;443;51.448;7.028;2023-04-01T14:53:37;5.10;;;3.93;;
912;SDS011;443;51.448;7.028;2023-04-01T14:56:10;3.90;;;3.47;;
912;SDS011;443;51.448;7.028;2023-04-01T14:58:41;4.97;;;4.13;;
912;SDS011;443;51.448;7.028;2023-04-01T15:01:19;5.03;;;4.13;;
912;SDS011;443;51.448;7.028;2023-04-01T15:03:59;5.23;;;4.57;;
912;SDS011;443;51.448;7.028;2023-04-01T15:06:51;4.60;;;3.57;;
912;SDS011;443;51.448;7.028;2023-04-01T15:09:27;5.77;;;4.77;;
912;SDS011;443;51.448;7.028;2023-04-01T15:12:04;5.80;;;4.27;;
912;SDS011;443;51.448;7.028;2023-04-01T15:14:51;6.43;;;4.70;;
912;SDS011;443;51.448;7.028;2023-04-01T15:17:34;4.90;;;4.03;;
912;SDS011;443;51.448;7.028;2023-04-01T15:20:28;4.87;;;3.50;;
912;SDS011;443;51.448;7.028;2023-04-01T15:23:13;6.40;;;4.80;;
912;SDS011;443;51.448;7.028;2023-04-01T15:25:51;4.40;;;4.00;;
912;SDS011;443;51.448;7.028;2023-04-01T15:28:45;3.83;;;3.43;;
912;SDS011;443;51.448;7.028;2023-04-01T15:31:20;5.53;;;4.60;;
912;SDS011;443;51.448;7.028;2023-04-01T15:34:06;4.53;;;4.10;;
912;SDS011;443;51.448;7.028;2023-04-01T15:36:44;4.93;;;4.13;;
912;SDS011;443;51.448;7.028;2023-04-01T15:39:17;5.63;;;3.70;;
912;SDS011;443;51.448;7.028;2023-04-01T15:42:04;7.10;;;3.60;;
912;SDS011;443;51.448;7.028;2023-04-01T15:44:48;3.80;;;3.40;;
912;SDS011;443;51.448;7.028;2023-04-01T15:47:27;5.20;;;3.20;;
912;SDS011;443;51.448;7.028;2023-04-01T15:50:11;3.63;;;2.90;;
912;SDS011;443;51.448;7.028;2023-04-01T15:53:01;4.50;;;3.57;;
912;SDS011;443;51.448;7.028;2023-04-01T15:55:44;2.77;;;2.53;;
912;SDS011;443;51.448;7.028;2023-04-01T15:58:20;4.00;;;2.20;;
912;SDS011;443;51.448;7.028;2023-04-01T16:01:02;2.70;;;2.40;;
912;SDS011;443;51.448;7.028;2023-04-01T16:03:37;3.70;;;2.60;;
912;SDS011;443;51.448;7.028;2023-04-01T16:06:17;3.43;;;2.80;;
912;SDS011;443;51.448;7.028;2023-04-01T16:08:57;4.93;;;2.83;;
912;SDS011;443;51.448;7.028;2023-04-01T16:11:37;4.37;;;4.07;;
912;SDS011;443;51.448;7.028;2023-04-01T16:14:18;3.40;;;2.43;;
912;SDS011;443;51.448;7.028;2023-04-01T16:16:58;2.60;;;2.30;;
912;SDS011;443;51.448;7.028;2023-04-01T16:19:37;3.50;;;3.20;;
912;SDS011;443;51.448;7.028;2023-04-01T16:22:17;3.40;;;2.70;;
912;SDS011;443;51.448;7.028;2023-04-01T16:24:51;2.83;;;2.63;;
912;SDS011;443;51.448;7.028;2023-04-01T16:27:24;4.67;;;3.87;;
912;SDS011;443;51.448;7.028;2023-04-01T16:29:56;3.80;;;3.47;;
912;SDS011;443;51.448;7.028;2023-04-01T16:32:34;4.33;;;3.10;;
912;SDS011;443;51.448;7.028;2023-04-01T16:35:16;4.00;;;3.40;;
912;SDS011;443;51.448;7.028;2023-04-01T16:37:54;4.10;;;3.20;;
912;SDS011;443;51.448;7.028;2023-04-01T16:40:33;3.80;;;2.87;;
912;SDS011;443;51.448;7.028;2023-04-01T16:43:06;4.47;;;3.90;;
912;SDS011;443;51.448;7.028;2023-04-01T16:45:41;3.63;;;3.33;;
912;SDS011;443;51.448;7.028;2023-04-01T16:48:13;3.00;;;2.70;;
912;SDS011;443;51.448;7.028;2023-04-01T16:50:48;3.67;;;3.10;;
912;SDS011;443;51.448;7.028;2023-04-01T16:53:25;4.90;;;3.00;;
912;SDS011;443;51.448;7.028;2023-04-01T16:56:03;4.27;;;3.43;;
912;SDS011;443;51.448;7.028;2023-04-01T16:58:37;4.50;;;3.20;;
912;SDS011;443;51.448;7.028;2023-04-01T17:01:09;5.23;;;3.20;;
912;SDS011;443;51.448;7.028;2023-04-01T17:03:41;3.27;;;2.97;;
912;SDS011;443;51.448;7.028;2023-04-01T17:06:17;6.43;;;3.00;;
912;SDS011;443;51.448;7.028;2023-04-01T17:11:50;5.27;;;3.80;;
912;SDS011;443;51.448;7.028;2023-04-01T17:14:27;4.30;;;3.60;;
912;SDS011;443;51.448;7.028;2023-04-01T17:17:01;3.73;;;3.40;;
912;SDS011;443;51.448;7.028;2023-04-01T17:19:41;6.80;;;3.90;;
912;SDS011;443;51.448;7.028;2023-04-01T17:22:19;3.50;;;3.17;;
912;SDS011;443;51.448;7.028;2023-04-01T17:24:59;4.13;;;3.83;;
912;SDS011;443;51.448;7.028;2023-04-01T17:27:39;3.40;;;3.10;;
912;SDS011;443;51.448;7.028;2023-04-01T17:30:17;4.40;;;4.00;;
912;SDS011;443;51.448;7.028;2023-04-01T17:35:57;4.07;;;3.50;;
912;SDS011;443;51.448;7.028;2023-04-01T17:38:34;5.60;;;5.03;;
912;SDS011;443;51.448;7.028;2023-04-01T17:41:19;5.70;;;4.53;;
912;SDS011;443;51.448;7.028;2023-04-01T17:43:57;7.97;;;4.87;;
912;SDS011;443;51.448;7.028;2023-04-01T17:46:50;5.40;;;4.90;;
912;SDS011;443;51.448;7.028;2023-04-01T17:49:37;6.73;;;5.13;;
912;SDS011;443;51.448;7.028;2023-04-01T17:52:10;6.77;;;5.80;;
912;SDS011;443;51.448;7.028;2023-04-01T17:54:44;6.40;;;5.13;;
912;SDS011;443;51.448;7.028;2023-04-01T17:57:27;6.40;;;5.43;;